Time;durP1;ratioP1;P1;durP2;ratioP2;P2;SDS_P1;SDS_P2;PMS_P1;PMS_P2;Temp;Humidity;BMP_temperature;BMP_pressure;BME280_temperature;BME280_humidity;BME280_pressure;Samples;Min_cycle;Max_cycle;Signal;HPM_P1;HPM_P2
2024/03/05 00:01:43;;;;;;;77.78;72.60;;;8.50;99.90;;;;;;5046842;28;20037;-79
2024/03/05 00:04:09;;;;;;;90.38;84.88;;;8.50;99.90;;;;;;5048461;28;20045;-80
2024/03/05 00:06:37;;;;;;;100.78;94.68;;;8.40;99.90;;;;;;5042879;28;20057;-80
2024/03/05 00:09:04;;;;;;;106.85;100.53;;;8.30;99.90;;;;;;5047652;28;20463;-79
2024/03/05 00:11:30;;;;;;;97.53;91.38;;;8.30;99.90;;;;;;5049469;28;20029;-80
2024/03/05 00:13:56;;;;;;;90.68;84.90;;;8.20;99.90;;;;;;5049308;28;20049;-79
2024/03/05 00:16:22;;;;;;;109.50;102.70;;;8.20;99.90;;;;;;5041884;28;20395;-79
2024/03/05 00:18:48;;;;;;;97.53;91.10;;;8.20;99.90;;;;;;5039269;28;20034;-80
2024/03/05 00:21:14;;;;;;;103.85;97.13;;;8.10;99.90;;;;;;5035887;28;20029;-79
2024/03/05 00:23:40;;;;;;;143.43;133.93;;;8.20;99.90;;;;;;5043041;28;20025;-80
2024/03/05 00:26:06;;;;;;;138.77;130.27;;;8.10;99.90;;;;;;5051075;28;20443;-79
2024/03/05 00:28:32;;;;;;;165.65;154.05;;;8.00;99.90;;;;;;5032767;28;20036;-79
2024/03/05 00:30:58;;;;;;;146.90;137.13;;;8.00;99.90;;;;;;5037564;28;20041;-78
2024/03/05 00:33:25;;;;;;;114.93;108.35;;;7.90;99.90;;;;;;5049688;28;20033;-78
2024/03/05 00:35:51;;;;;;;104.43;98.72;;;7.90;99.90;;;;;;5050925;28;20036;-80
2024/03/05 00:38:17;;;;;;;98.47;92.93;;;7.90;99.90;;;;;;5051429;28;20490;-79
2024/03/05 00:40:44;;;;;;;135.20;127.50;;;8.00;99.90;;;;;;5050927;28;20032;-80
2024/03/05 00:43:10;;;;;;;109.10;103.13;;;8.00;99.90;;;;;;5050804;28;20045;-80
2024/03/05 00:45:36;;;;;;;120.63;113.60;;;8.00;99.90;;;;;;5050513;28;20633;-79
2024/03/05 00:48:03;;;;;;;149.15;140.15;;;8.10;99.90;;;;;;5051248;28;20025;-80
2024/03/05 00:50:29;;;;;;;125.47;118.38;;;8.10;99.90;;;;;;5050900;28;21493;-80
2024/03/05 00:52:55;;;;;;;122.43;115.68;;;8.20;99.90;;;;;;5051067;28;20033;-77
2024/03/05 00:55:21;;;;;;;110.10;103.88;;;8.20;99.90;;;;;;5049458;28;20407;-78
2024/03/05 00:57:47;;;;;;;125.72;118.82;;;8.20;99.90;;;;;;5050788;28;20044;-78
2024/03/05 01:00:14;;;;;;;127.13;120.00;;;8.20;99.90;;;;;;5052913;28;20383;-77
2024/03/05 01:02:42;;;;;;;128.02;121.20;;;8.20;99.90;;;;;;5053376;28;20036;-78
2024/03/05 01:05:09;;;;;;;114.93;108.57;;;8.30;99.90;;;;;;5054428;28;20041;-78
2024/03/05 01:07:37;;;;;;;115.22;108.90;;;8.30;99.90;;;;;;5034584;28;20044;-77
2024/03/05 01:10:06;;;;;;;105.28;99.15;;;8.20;99.90;;;;;;5034751;28;20033;-78
2024/03/05 01:12:32;;;;;;;108.13;102.07;;;8.30;99.90;;;;;;5044961;28;20128;-78
2024/03/05 01:14:58;;;;;;;101.53;96.05;;;8.30;99.90;;;;;;5033441;28;20033;-77
2024/03/05 01:17:26;;;;;;;106.93;100.82;;;8.30;99.90;;;;;;5051976;28;20045;-78
2024/03/05 01:19:53;;;;;;;106.07;100.32;;;8.30;99.90;;;;;;5054054;28;20026;-77
2024/03/05 01:22:19;;;;;;;98.80;93.13;;;8.20;99.90;;;;;;5053845;28;20049;-77
2024/03/05 01:24:45;;;;;;;104.93;98.95;;;8.10;99.90;;;;;;5053970;28;20033;-78
2024/03/05 01:27:11;;;;;;;105.63;99.70;;;8.10;99.90;;;;;;5053239;28;20095;-78
2024/03/05 01:29:40;;;;;;;93.72;88.35;;;8.10;99.90;;;;;;5054150;28;20029;-78
2024/03/05 01:32:07;;;;;;;108.70;102.22;;;8.10;99.90;;;;;;5052054;28;20048;-78
2024/03/05 01:34:37;;;;;;;113.50;106.70;;;8.10;99.90;;;;;;5038657;28;20033;-78
2024/03/05 01:37:03;;;;;;;107.38;101.25;;;8.10;99.90;;;;;;5046107;28;20049;-78
2024/03/05 01:39:30;;;;;;;117.30;110.20;;;8.10;99.90;;;;;;5053552;28;20033;-78
2024/03/05 01:41:56;;;;;;;118.95;111.75;;;8.00;99.90;;;;;;5053046;28;20037;-78
2024/03/05 01:44:23;;;;;;;96.57;90.93;;;8.00;99.90;;;;;;5053153;28;20053;-78
2024/03/05 01:46:51;;;;;;;109.78;103.45;;;7.90;99.90;;;;;;5046893;28;20033;-78
2024/03/05 01:49:17;;;;;;;100.13;94.00;;;8.00;99.90;;;;;;5052334;28;20037;-78
2024/03/05 01:51:44;;;;;;;81.47;76.28;;;8.10;99.90;;;;;;5053191;28;20382;-77
2024/03/05 01:54:11;;;;;;;92.55;87.07;;;8.10;99.90;;;;;;5052822;28;20033;-78
2024/03/05 01:56:37;;;;;;;102.75;96.63;;;8.00;99.90;;;;;;5051148;28;20049;-78
2024/03/05 01:59:03;;;;;;;105.88;100.00;;;7.90;99.90;;;;;;5053720;28;20029;-77
2024/03/05 02:01:33;;;;;;;110.30;103.90;;;7.90;99.90;;;;;;5052695;28;20032;-78
2024/03/05 02:03:59;;;;;;;105.22;98.80;;;7.90;99.90;;;;;;5049134;28;20040;-77
2024/03/05 02:06:26;;;;;;;103.78;97.88;;;7.90;99.90;;;;;;5051761;28;20470;-78
2024/03/05 02:08:52;;;;;;;96.25;90.90;;;7.90;99.90;;;;;;5051409;28;20041;-78
2024/03/05 02:11:19;;;;;;;93.82;88.47;;;7.80;99.90;;;;;;5051612;28;20573;-78
2024/03/05 02:13:45;;;;;;;98.18;92.65;;;7.80;99.90;;;;;;5042693;28;20045;-77
2024/03/05 02:16:11;;;;;;;89.57;84.78;;;7.80;99.90;;;;;;5040384;28;20038;-77
2024/03/05 02:18:37;;;;;;;97.93;92.30;;;7.80;99.90;;;;;;5040575;28;20483;-77
2024/03/05 02:21:05;;;;;;;103.35;97.35;;;7.80;99.90;;;;;;5051431;28;20021;-78
2024/03/05 02:23:32;;;;;;;98.72;93.40;;;7.80;99.90;;;;;;5051500;28;20044;-78
2024/03/05 02:26:00;;;;;;;106.53;100.38;;;7.80;99.90;;;;;;5047008;28;20021;-79
2024/03/05 02:28:26;;;;;;;105.35;99.72;;;7.70;99.90;;;;;;5051272;28;20048;-77
2024/03/05 02:30:52;;;;;;;103.53;97.78;;;7.70;99.90;;;;;;5051087;28;20398;-78
2024/03/05 02:33:19;;;;;;;128.80;121.72;;;7.70;99.90;;;;;;5049797;28;20036;-78
2024/03/05 02:35:46;;;;;;;116.10;109.70;;;7.70;99.90;;;;;;5018064;28;20479;-78
2024/03/05 02:38:12;;;;;;;119.43;113.10;;;7.70;99.90;;;;;;5033899;28;20041;-78
2024/03/05 02:40:39;;;;;;;109.05;102.93;;;7.70;99.90;;;;;;5042464;28;20033;-78
2024/03/05 02:43:06;;;;;;;86.35;81.80;;;7.60;99.90;;;;;;5034592;28;20045;-77
2024/03/05 02:45:32;;;;;;;93.07;88.22;;;7.60;99.90;;;;;;5037829;28;20048;-78
2024/03/05 02:48:03;;;;;;;96.57;91.28;;;7.70;99.90;;;;;;5051407;28;20042;-78
2024/03/05 02:50:29;;;;;;;103.25;97.38;;;7.70;99.90;;;;;;5041253;28;20059;-78
2024/03/05 02:52:56;;;;;;;97.03;91.63;;;7.60;99.90;;;;;;5045065;28;20060;-78
2024/03/05 02:55:23;;;;;;;116.53;110.18;;;7.60;99.90;;;;;;5045011;28;20028;-78
2024/03/05 02:57:49;;;;;;;102.70;97.25;;;7.60;99.90;;;;;;5041267;28;20040;-78
2024/03/05 03:00:21;;;;;;;120.88;114.25;;;7.60;99.90;;;;;;5049950;28;20029;-77
2024/03/05 03:02:48;;;;;;;95.35;90.03;;;7.60;99.90;;;;;;5039741;28;20063;-78
2024/03/05 03:05:16;;;;;;;105.47;99.88;;;7.60;99.90;;;;;;5039610;28;20037;-80
2024/03/05 03:07:46;;;;;;;108.75;103.03;;;7.60;99.90;;;;;;5041509;28;20411;-80
2024/03/05 03:10:12;;;;;;;109.15;103.47;;;7.60;99.90;;;;;;5042087;28;20037;-80
2024/03/05 03:12:41;;;;;;;93.38;88.03;;;7.50;99.90;;;;;;5047114;28;20752;-80
2024/03/05 03:15:07;;;;;;;86.03;81.22;;;7.50;99.90;;;;;;5040438;28;20033;-80
2024/03/05 03:17:34;;;;;;;83.70;79.40;;;7.50;99.90;;;;;;5033497;28;20045;-80
2024/03/05 03:20:01;;;;;;;95.97;90.63;;;7.50;99.90;;;;;;5030345;28;20064;-80
2024/03/05 03:22:27;;;;;;;88.60;83.80;;;7.50;99.90;;;;;;5049068;28;20395;-80
2024/03/05 03:24:53;;;;;;;96.18;90.82;;;7.50;99.90;;;;;;5032135;28;20068;-80
2024/03/05 03:27:19;;;;;;;92.47;87.03;;;7.60;99.90;;;;;;5048233;28;20041;-80
2024/03/05 03:29:46;;;;;;;100.05;94.82;;;7.60;99.90;;;;;;5050682;28;20470;-80
2024/03/05 03:32:12;;;;;;;80.43;75.82;;;7.60;99.90;;;;;;5049509;28;20037;-80
2024/03/05 03:34:41;;;;;;;107.45;101.28;;;7.60;99.90;;;;;;5050528;28;20040;-80
2024/03/05 03:37:07;;;;;;;111.18;104.88;;;7.70;99.90;;;;;;5038333;28;20041;-80
2024/03/05 03:39:36;;;;;;;88.97;84.22;;;7.70;99.90;;;;;;5032235;28;20048;-80
2024/03/05 03:42:03;;;;;;;111.00;104.93;;;7.70;99.90;;;;;;5041685;28;20081;-80
2024/03/05 03:44:29;;;;;;;89.70;84.10;;;7.60;99.90;;;;;;5044684;28;20064;-79
2024/03/05 03:46:55;;;;;;;93.35;87.88;;;7.50;99.90;;;;;;5051291;28;20052;-80
2024/03/05 03:49:25;;;;;;;86.03;81.30;;;7.50;99.90;;;;;;5052014;28;20025;-80
2024/03/05 03:51:53;;;;;;;94.40;88.93;;;7.50;99.90;;;;;;5043696;28;20045;-80
2024/03/05 03:54:20;;;;;;;81.75;76.82;;;7.50;99.90;;;;;;5049750;28;20044;-80
2024/03/05 03:56:46;;;;;;;116.95;109.78;;;7.40;99.90;;;;;;5047556;28;20403;-79
2024/03/05 03:59:15;;;;;;;93.35;88.10;;;7.40;99.90;;;;;;5046521;28;20368;-80
2024/03/05 04:01:46;;;;;;;115.32;108.88;;;7.30;99.90;;;;;;5034187;28;20036;-80
2024/03/05 04:04:12;;;;;;;93.20;88.10;;;7.20;99.90;;;;;;5037354;28;20040;-80
2024/03/05 04:06:39;;;;;;;114.25;107.78;;;7.20;99.90;;;;;;5046995;28;20036;-80
2024/03/05 04:09:08;;;;;;;95.38;90.00;;;7.10;99.90;;;;;;5038685;28;20028;-80
2024/03/05 04:11:36;;;;;;;111.90;105.75;;;7.10;99.90;;;;;;5051420;28;20028;-80
2024/03/05 04:14:02;;;;;;;109.28;103.05;;;7.20;99.90;;;;;;5035169;28;20492;-80
2024/03/05 04:16:31;;;;;;;108.78;102.82;;;7.10;99.90;;;;;;5041150;28;20042;-80
2024/03/05 04:18:57;;;;;;;95.18;89.40;;;7.20;99.90;;;;;;5047131;28;20494;-79
2024/03/05 04:21:24;;;;;;;88.43;83.25;;;7.20;99.90;;;;;;5043404;28;20032;-80
2024/03/05 04:23:53;;;;;;;78.05;73.47;;;7.20;99.90;;;;;;5035564;28;20037;-80
2024/03/05 04:26:23;;;;;;;101.68;96.00;;;7.30;99.90;;;;;;5046177;28;20025;-80
2024/03/05 04:28:54;;;;;;;118.07;111.45;;;7.30;99.90;;;;;;5034703;28;20032;-81
2024/03/05 04:31:23;;;;;;;105.80;99.95;;;7.30;99.90;;;;;;5041801;28;20049;-80
2024/03/05 04:33:49;;;;;;;85.50;80.70;;;7.30;99.90;;;;;;5041164;28;20037;-80
2024/03/05 04:36:15;;;;;;;79.10;74.57;;;7.30;99.90;;;;;;5047208;28;20043;-80
2024/03/05 04:38:42;;;;;;;106.63;100.25;;;7.40;99.90;;;;;;5041626;28;20040;-81
2024/03/05 04:41:09;;;;;;;112.20;105.90;;;7.40;99.90;;;;;;5044168;28;20041;-80
2024/03/05 04:43:35;;;;;;;131.00;123.68;;;7.40;99.90;;;;;;5054716;28;20053;-80
2024/03/05 04:46:01;;;;;;;116.70;109.80;;;7.40;99.90;;;;;;5042175;28;20045;-80
2024/03/05 04:48:27;;;;;;;132.38;124.82;;;7.40;99.90;;;;;;5035038;28;20033;-80
2024/03/05 04:50:55;;;;;;;127.65;120.53;;;7.40;99.90;;;;;;5037903;28;20032;-80
2024/03/05 04:53:21;;;;;;;116.07;109.97;;;7.30;99.90;;;;;;5044425;28;20373;-80
2024/03/05 04:55:48;;;;;;;89.93;85.28;;;7.30;99.90;;;;;;5054555;28;20064;-80
2024/03/05 04:58:14;;;;;;;103.15;97.72;;;7.10;99.90;;;;;;5053424;28;20049;-80
2024/03/05 05:00:41;;;;;;;160.90;152.38;;;7.00;99.90;;;;;;5053841;28;20045;-80
2024/03/05 05:03:07;;;;;;;96.85;91.90;;;7.10;99.90;;;;;;5042895;28;20029;-80
2024/03/05 05:05:33;;;;;;;97.22;92.38;;;7.10;99.90;;;;;;5037283;28;20037;-81
2024/03/05 05:08:03;;;;;;;79.85;75.80;;;7.10;99.90;;;;;;5054724;28;20358;-81
2024/03/05 05:10:31;;;;;;;80.97;76.55;;;7.10;99.90;;;;;;5051645;28;20495;-81
2024/03/05 05:12:58;;;;;;;79.00;74.88;;;7.00;99.90;;;;;;5034189;28;20337;-80
2024/03/05 05:15:24;;;;;;;76.40;72.53;;;7.00;99.90;;;;;;5033197;28;20030;-81
2024/03/05 05:17:51;;;;;;;85.60;81.23;;;7.00;99.90;;;;;;5032498;28;20045;-80
2024/03/05 05:20:21;;;;;;;85.05;80.68;;;6.90;99.90;;;;;;5034664;28;20478;-80
2024/03/05 05:22:47;;;;;;;94.07;89.20;;;6.80;99.90;;;;;;5038924;28;20041;-80
2024/03/05 05:25:19;;;;;;;90.68;85.93;;;6.90;99.90;;;;;;5044359;28;20036;-81
2024/03/05 05:27:49;;;;;;;90.63;85.82;;;6.90;99.90;;;;;;5054228;28;20036;-82
2024/03/05 05:30:20;;;;;;;82.33;77.97;;;6.80;99.90;;;;;;5053555;28;20033;-82
2024/03/05 05:32:47;;;;;;;90.63;85.18;;;6.80;99.90;;;;;;5051968;28;20045;-82
2024/03/05 05:35:14;;;;;;;76.18;72.30;;;6.80;99.90;;;;;;5037343;28;20044;-81
2024/03/05 05:37:40;;;;;;;81.63;77.13;;;6.80;99.90;;;;;;5052836;28;20039;-82
2024/03/05 05:40:10;;;;;;;85.25;80.57;;;6.80;99.90;;;;;;5054018;28;20096;-83
2024/03/05 05:42:39;;;;;;;76.10;71.87;;;6.90;99.90;;;;;;5053549;28;20044;-83
2024/03/05 05:45:12;;;;;;;291.30;102.97;;;6.90;99.90;;;;;;5048619;28;20040;-82
2024/03/05 05:47:42;;;;;;;100.10;94.67;;;6.90;99.90;;;;;;5032373;28;20048;-83
2024/03/05 05:50:17;;;;;;;102.67;97.30;;;6.90;99.90;;;;;;5032040;28;20044;-83
2024/03/05 05:52:50;;;;;;;106.55;100.93;;;6.80;99.90;;;;;;5048142;28;20037;-82
2024/03/05 05:55:19;;;;;;;137.88;130.45;;;6.80;99.90;;;;;;5034651;28;20537;-83
2024/03/05 05:57:49;;;;;;;104.53;98.93;;;6.80;99.90;;;;;;5051922;28;20402;-82
2024/03/05 06:00:39;;;;;;;107.13;100.82;;;6.80;99.90;;;;;;5051586;28;20438;-83
2024/03/05 06:03:09;;;;;;;110.47;104.30;;;6.80;99.90;;;;;;5038858;28;20360;-82
2024/03/05 06:05:36;;;;;;;130.97;123.97;;;6.80;99.90;;;;;;5037185;28;20037;-83
2024/03/05 06:08:03;;;;;;;115.00;108.70;;;6.80;99.90;;;;;;5053503;28;20025;-83
2024/03/05 06:10:30;;;;;;;127.63;120.85;;;6.80;99.90;;;;;;5051778;28;20045;-82
2024/03/05 06:12:56;;;;;;;119.85;113.45;;;6.80;99.90;;;;;;5040182;28;20040;-81
2024/03/05 06:15:23;;;;;;;141.13;125.40;;;6.80;99.90;;;;;;5033021;28;20030;-83
2024/03/05 06:17:50;;;;;;;136.53;128.93;;;6.80;99.90;;;;;;5033435;28;20048;-83
2024/03/05 06:20:16;;;;;;;119.85;113.10;;;6.80;99.90;;;;;;5051455;28;20044;-80
2024/03/05 06:22:45;;;;;;;123.83;116.90;;;6.90;99.90;;;;;;5053066;28;20021;-82
2024/03/05 06:25:17;;;;;;;118.03;111.77;;;6.80;99.90;;;;;;5053336;28;20033;-82
2024/03/05 06:27:44;;;;;;;112.20;106.00;;;6.80;99.90;;;;;;5050686;28;20059;-82
2024/03/05 06:30:17;;;;;;;119.32;112.72;;;6.80;99.90;;;;;;5052720;28;20349;-82
2024/03/05 06:32:47;;;;;;;121.90;115.13;;;6.80;99.90;;;;;;5051089;28;20037;-83
2024/03/05 06:35:14;;;;;;;111.75;105.75;;;6.80;99.90;;;;;;5043510;28;20041;-82
2024/03/05 06:37:40;;;;;;;121.45;114.57;;;6.80;99.90;;;;;;5051401;28;20033;-83
2024/03/05 06:40:09;;;;;;;119.82;113.28;;;6.70;99.90;;;;;;5051778;28;20040;-83
2024/03/05 06:42:51;;;;;;;112.23;105.70;;;6.70;99.90;;;;;;5052657;28;20040;-83
2024/03/05 06:45:27;;;;;;;146.48;118.93;;;6.70;99.90;;;;;;5050767;28;20711;-83
2024/03/05 06:47:57;;;;;;;121.77;115.47;;;6.70;99.90;;;;;;5052911;28;20056;-83
2024/03/05 06:50:23;;;;;;;116.90;110.35;;;6.70;99.90;;;;;;5052447;28;20471;-83
2024/03/05 06:58:19;;;;;;;96.23;91.03;;;6.70;99.90;;;;;;5054005;28;20044;-83
2024/03/05 07:00:46;;;;;;;75.45;71.38;;;6.70;99.90;;;;;;5051291;28;20036;-84
2024/03/05 07:03:13;;;;;;;78.10;73.83;;;6.70;99.90;;;;;;5050112;28;20053;-83
2024/03/05 07:05:39;;;;;;;87.13;82.33;;;6.70;99.90;;;;;;5052471;28;20029;-84
2024/03/05 07:08:08;;;;;;;94.37;89.07;;;6.70;99.90;;;;;;5052553;28;20060;-84
2024/03/05 07:10:37;;;;;;;120.90;114.37;;;6.70;99.90;;;;;;5052381;28;20044;-84
2024/03/05 07:13:03;;;;;;;113.75;107.60;;;6.70;99.90;;;;;;5043294;28;20045;-84
2024/03/05 07:15:29;;;;;;;109.70;103.57;;;6.80;99.90;;;;;;5038178;28;20048;-83
2024/03/05 07:17:56;;;;;;;91.65;85.65;;;6.80;99.90;;;;;;5048291;28;20089;-83
2024/03/05 07:20:24;;;;;;;87.50;82.80;;;6.80;99.90;;;;;;5031519;28;20021;-82
2024/03/05 07:22:51;;;;;;;89.35;84.45;;;6.80;99.90;;;;;;5049514;28;20045;-83
2024/03/05 07:25:17;;;;;;;117.30;110.78;;;6.80;99.90;;;;;;5031891;28;20041;-83
2024/03/05 07:27:44;;;;;;;97.93;92.47;;;6.80;99.90;;;;;;5032178;28;20040;-83
2024/03/05 07:30:12;;;;;;;103.13;97.47;;;6.80;99.90;;;;;;5038552;28;20043;-83
2024/03/05 07:32:38;;;;;;;120.00;113.47;;;6.80;99.90;;;;;;5036591;28;20033;-82
2024/03/05 07:35:08;;;;;;;169.32;159.60;;;6.90;99.90;;;;;;5049065;28;20040;-82
2024/03/05 07:37:35;;;;;;;145.38;137.40;;;6.90;99.90;;;;;;5037466;28;20399;-84
2024/03/05 07:40:16;;;;;;;79.45;75.20;;;7.00;99.90;;;;;;5048403;28;20041;-84
2024/03/05 07:42:48;;;;;;;88.63;83.72;;;7.10;99.90;;;;;;5045979;28;20068;-84
2024/03/05 07:45:18;;;;;;;174.20;163.73;;;7.40;99.90;;;;;;5050604;28;20032;-83
2024/03/05 07:47:44;;;;;;;128.60;121.78;;;7.60;99.90;;;;;;5039031;28;20036;-84
2024/03/05 07:50:14;;;;;;;171.15;161.75;;;7.70;99.90;;;;;;5030518;28;20026;-83
2024/03/05 07:52:47;;;;;;;170.45;161.02;;;7.60;99.90;;;;;;5030945;28;20037;-83
2024/03/05 07:55:21;;;;;;;125.65;118.88;;;7.70;99.90;;;;;;5041900;28;20052;-84
2024/03/05 07:57:49;;;;;;;158.00;149.55;;;7.80;99.90;;;;;;5032702;28;20052;-84
2024/03/05 08:00:17;;;;;;;157.25;148.77;;;8.10;99.90;;;;;;5030960;28;20040;-85
2024/03/05 08:02:45;;;;;;;160.00;151.55;;;8.50;99.90;;;;;;5048026;28;20044;-79
2024/03/05 08:05:18;;;;;;;125.93;119.30;;;8.60;99.90;;;;;;5039414;28;20032;-86
2024/03/05 08:07:45;;;;;;;267.83;252.93;;;8.80;99.90;;;;;;5032374;28;20426;-83
2024/03/05 08:10:12;;;;;;;215.85;204.40;;;8.90;99.90;;;;;;5035255;28;20383;-83
2024/03/05 08:12:42;;;;;;;235.55;223.00;;;8.90;99.90;;;;;;5055102;28;20032;-82
2024/03/05 08:15:12;;;;;;;184.45;174.52;;;8.80;99.90;;;;;;5054855;28;20036;-82
2024/03/05 08:17:39;;;;;;;188.20;178.32;;;8.90;99.90;;;;;;5050524;28;20028;-82
2024/03/05 08:20:09;;;;;;;232.13;219.95;;;8.90;99.90;;;;;;5036120;28;20104;-82
2024/03/05 08:22:35;;;;;;;279.88;263.95;;;8.70;99.90;;;;;;5035083;28;20044;-82
2024/03/05 08:25:15;;;;;;;202.45;191.68;;;8.60;99.90;;;;;;5034652;28;20042;-82
2024/03/05 08:27:45;;;;;;;200.13;189.50;;;8.50;99.90;;;;;;5035829;28;20041;-82
2024/03/05 08:30:15;;;;;;;152.43;144.45;;;8.50;99.90;;;;;;5045936;28;20059;-83
2024/03/05 08:32:41;;;;;;;194.23;184.02;;;8.60;99.90;;;;;;5052085;28;20098;-82
2024/03/05 08:35:11;;;;;;;148.63;140.98;;;8.70;99.90;;;;;;5031452;28;20048;-82
2024/03/05 08:37:40;;;;;;;157.85;149.68;;;8.80;99.90;;;;;;5055248;28;20036;-82
2024/03/05 08:40:13;;;;;;;132.05;125.25;;;8.80;99.90;;;;;;5040204;28;20041;-83
2024/03/05 08:42:45;;;;;;;147.07;139.63;;;8.80;99.90;;;;;;5030953;28;20491;-83
2024/03/05 08:45:18;;;;;;;134.68;127.53;;;8.70;99.90;;;;;;5044386;28;20487;-82
2024/03/05 08:47:48;;;;;;;123.18;116.80;;;8.60;99.90;;;;;;5035099;28;20045;-82
2024/03/05 08:50:15;;;;;;;157.05;148.68;;;8.60;99.90;;;;;;5034382;28;20034;-83
2024/03/05 08:52:41;;;;;;;118.57;112.47;;;8.60;99.90;;;;;;5039783;28;20041;-82
2024/03/05 08:55:10;;;;;;;141.18;134.10;;;8.60;99.90;;;;;;5043656;28;20040;-83
2024/03/05 08:57:40;;;;;;;161.00;152.73;;;8.60;99.90;;;;;;5049010;28;20383;-81
2024/03/05 09:00:14;;;;;;;145.50;136.65;;;8.80;99.90;;;;;;5044644;28;20033;-82
2024/03/05 09:02:42;;;;;;;116.20;109.97;;;8.80;99.90;;;;;;5047304;28;20029;-76
2024/03/05 09:05:09;;;;;;;131.00;124.13;;;8.90;99.90;;;;;;5038735;28;20029;-74
2024/03/05 09:07:39;;;;;;;181.27;170.93;;;9.00;99.90;;;;;;5041643;28;20045;-72
2024/03/05 09:10:06;;;;;;;231.98;219.35;;;9.10;99.90;;;;;;5039921;28;20032;-79
2024/03/05 09:12:32;;;;;;;135.18;128.13;;;9.30;99.90;;;;;;5035936;28;20029;-79
2024/03/05 09:14:58;;;;;;;192.55;182.30;;;9.40;99.90;;;;;;5045848;28;20036;-79
2024/03/05 09:17:25;;;;;;;238.10;225.07;;;9.80;99.90;;;;;;5042384;28;20037;-80
2024/03/05 09:19:52;;;;;;;1999.90;999.90;;;10.00;99.90;;;;;;5047523;28;20040;-79
2024/03/05 09:22:19;;;;;;;1999.90;999.90;;;10.30;99.90;;;;;;5052984;28;20074;-79
2024/03/05 09:24:45;;;;;;;1999.90;999.90;;;10.50;99.90;;;;;;5052872;28;20491;-79
2024/03/05 09:27:12;;;;;;;1999.90;999.90;;;10.60;99.90;;;;;;5049500;28;20033;-79
2024/03/05 09:29:38;;;;;;;1999.90;999.90;;;10.70;99.90;;;;;;5033619;28;20030;-80
2024/03/05 09:32:05;;;;;;;1999.90;999.90;;;10.80;99.90;;;;;;5028228;28;20052;-80
2024/03/05 09:34:32;;;;;;;1999.90;999.90;;;10.90;99.90;;;;;;5037874;28;20392;-80
2024/03/05 09:36:58;;;;;;;1999.90;999.90;;;11.00;99.90;;;;;;5045464;28;20048;-79
2024/03/05 09:39:24;;;;;;;1999.90;999.90;;;10.90;99.90;;;;;;5032795;28;20057;-79
2024/03/05 09:41:52;;;;;;;1999.90;999.90;;;10.90;99.90;;;;;;5044454;28;20048;-79
2024/03/05 09:44:18;;;;;;;1999.90;999.90;;;10.90;99.90;;;;;;5010096;28;1167520;-79
2024/03/05 09:46:45;;;;;;;1999.90;999.90;;;11.10;99.90;;;;;;5018471;28;20038;-80
2024/03/05 09:49:13;;;;;;;1999.90;999.90;;;11.30;99.90;;;;;;5038279;28;20086;-80
2024/03/05 09:51:39;;;;;;;1999.90;999.90;;;11.30;99.90;;;;;;5036198;28;20372;-79
2024/03/05 09:54:10;;;;;;;1999.90;999.90;;;11.30;99.90;;;;;;5049119;28;20468;-80
2024/03/05 09:56:44;;;;;;;1999.90;999.90;;;11.30;99.90;;;;;;5046871;28;20494;-80
2024/03/05 09:59:16;;;;;;;1999.90;999.90;;;11.30;99.90;;;;;;5048053;28;20056;-79
2024/03/05 10:01:44;;;;;;;1999.90;999.90;;;11.20;99.90;;;;;;5038541;28;20042;-80
2024/03/05 10:04:15;;;;;;;1999.90;999.90;;;11.30;99.90;;;;;;5034589;28;20037;-80
2024/03/05 10:06:46;;;;;;;1999.90;999.90;;;11.30;99.90;;;;;;5041752;28;20041;-80
2024/03/05 10:09:13;;;;;;;1999.90;999.90;;;11.30;99.90;;;;;;5044505;28;20041;-79
2024/03/05 10:11:40;;;;;;;1999.90;999.90;;;11.40;99.90;;;;;;5045495;28;20025;-80
2024/03/05 10:14:10;;;;;;;1999.90;999.90;;;11.40;99.90;;;;;;5053678;28;20044;-79
2024/03/05 10:16:39;;;;;;;1999.90;999.90;;;11.30;99.90;;;;;;5052761;28;20041;-79
2024/03/05 10:19:16;;;;;;;1999.90;999.90;;;11.30;99.90;;;;;;5038220;28;20045;-80
2024/03/05 10:21:43;;;;;;;1999.90;999.90;;;11.50;99.90;;;;;;5033346;28;20040;-78
2024/03/05 10:24:10;;;;;;;1999.90;999.90;;;11.60;99.90;;;;;;5045783;28;20048;-77
2024/03/05 10:26:36;;;;;;;1999.90;999.90;;;11.80;99.90;;;;;;5043154;28;20479;-77
2024/03/05 10:29:12;;;;;;;1999.90;999.90;;;11.90;99.90;;;;;;5039968;28;20029;-76
2024/03/05 10:31:39;;;;;;;1999.90;999.90;;;11.90;99.90;;;;;;5035115;28;20033;-76
2024/03/05 10:34:06;;;;;;;1999.90;999.90;;;11.80;99.90;;;;;;5045360;28;20040;-76
2024/03/05 10:36:33;;;;;;;1999.90;999.90;;;11.70;99.90;;;;;;5048130;28;20025;-76
2024/03/05 10:38:59;;;;;;;1999.90;999.90;;;11.70;99.90;;;;;;5045512;28;20037;-76
2024/03/05 10:41:32;;;;;;;1999.90;999.90;;;11.60;99.90;;;;;;5049257;28;20024;-77
2024/03/05 10:44:02;;;;;;;1999.90;999.90;;;11.70;99.90;;;;;;5038801;28;20049;-77
2024/03/05 10:46:29;;;;;;;1999.90;999.90;;;11.80;99.90;;;;;;5037170;28;20029;-77
2024/03/05 10:48:59;;;;;;;1999.90;999.90;;;11.70;99.90;;;;;;5032837;28;20030;-77
2024/03/05 10:51:29;;;;;;;1999.90;999.90;;;11.80;99.90;;;;;;5042504;28;20376;-77
2024/03/05 10:54:01;;;;;;;1999.90;999.90;;;12.00;99.90;;;;;;5051052;28;20032;-77
2024/03/05 10:56:27;;;;;;;1999.90;999.90;;;12.10;99.90;;;;;;5041864;28;20041;-79
2024/03/05 11:01:38;;;;;;;1999.90;999.90;;;12.20;99.90;;;;;;5045673;28;20037;-76
2024/03/05 11:04:11;;;;;;;1999.90;999.90;;;12.40;99.90;;;;;;5047844;28;20064;-76
2024/03/05 11:06:40;;;;;;;1999.90;999.90;;;12.50;99.90;;;;;;5051539;28;20032;-79
2024/03/05 11:09:10;;;;;;;1999.90;999.90;;;12.50;99.90;;;;;;5032861;28;20037;-80
2024/03/05 11:11:37;;;;;;;1999.90;999.90;;;12.30;99.90;;;;;;5044181;28;20041;-79
2024/03/05 11:14:03;;;;;;;1999.90;999.90;;;12.20;99.90;;;;;;5051365;28;20036;-79
2024/03/05 11:16:35;;;;;;;1999.90;999.90;;;12.30;99.90;;;;;;5050630;28;20399;-79
2024/03/05 11:19:05;;;;;;;1999.90;999.90;;;12.30;99.90;;;;;;5051147;28;20049;-77
2024/03/05 11:21:38;;;;;;;1999.90;999.90;;;12.40;99.90;;;;;;5050551;28;20388;-77
2024/03/05 11:24:04;;;;;;;1999.90;999.90;;;12.40;99.90;;;;;;5051467;28;20387;-77
2024/03/05 11:26:32;;;;;;;1999.90;999.90;;;12.60;99.90;;;;;;5051973;28;20029;-77
2024/03/05 11:29:06;;;;;;;1999.90;999.90;;;12.70;99.90;;;;;;5052338;28;20056;-78
2024/03/05 11:31:32;;;;;;;1999.90;999.90;;;12.60;99.90;;;;;;5051325;28;20033;-81
2024/03/05 11:34:05;;;;;;;1999.90;999.90;;;12.50;99.90;;;;;;5033261;28;20037;-81
2024/03/05 11:36:35;;;;;;;1999.90;999.90;;;12.40;99.90;;;;;;5051179;28;20050;-78
2024/03/05 11:39:08;;;;;;;1999.90;999.90;;;12.30;99.90;;;;;;5042650;28;20093;-78
2024/03/05 11:41:36;;;;;;;1999.90;999.90;;;12.20;99.90;;;;;;5043257;28;20029;-78
2024/03/05 11:44:02;;;;;;;1999.90;999.90;;;12.30;99.90;;;;;;5027045;28;20041;-78
2024/03/05 11:46:48;;;;;;;1999.90;999.90;;;12.20;99.90;;;;;;5041127;28;20036;-86
2024/03/05 11:49:15;;;;;;;1999.90;999.90;;;12.20;99.90;;;;;;5041237;28;20052;-80
2024/03/05 11:51:45;;;;;;;1999.90;999.90;;;12.30;99.90;;;;;;5044415;28;20029;-79
2024/03/05 11:54:15;;;;;;;1999.90;999.90;;;12.40;99.90;;;;;;5030539;28;20391;-79
2024/03/05 11:56:48;;;;;;;1999.90;999.90;;;12.60;99.90;;;;;;5048801;28;20033;-79
2024/03/05 11:59:14;;;;;;;1999.90;999.90;;;12.80;99.90;;;;;;5029842;28;20415;-79
2024/03/05 12:01:43;;;;;;;1999.90;999.90;;;12.80;99.90;;;;;;5043095;28;20033;-78
2024/03/05 12:04:11;;;;;;;1999.90;999.90;;;12.80;99.90;;;;;;5049911;28;20033;-79
2024/03/05 12:06:41;;;;;;;1999.90;999.90;;;12.90;99.90;;;;;;5042915;28;20045;-79
2024/03/05 12:09:18;;;;;;;1999.90;999.90;;;13.20;99.90;;;;;;5051651;28;20487;-78
2024/03/05 12:12:02;;;;;;;1999.90;999.90;;;13.40;99.90;;;;;;5050824;28;20064;-78
2024/03/05 12:14:35;;;;;;;1999.90;999.90;;;13.60;99.90;;;;;;5051572;28;20059;-80
2024/03/05 12:17:12;;;;;;;1999.90;999.90;;;13.90;99.90;;;;;;5045748;28;20029;-79
2024/03/05 12:19:40;;;;;;;1999.90;999.90;;;14.10;99.90;;;;;;5050998;28;20048;-79
2024/03/05 12:22:09;;;;;;;1999.90;999.90;;;14.40;99.90;;;;;;5050733;28;20041;-79
2024/03/05 12:24:36;;;;;;;1999.90;999.90;;;14.40;99.90;;;;;;5050690;28;20059;-79
2024/03/05 12:27:03;;;;;;;1999.90;999.90;;;14.40;99.90;;;;;;5048739;28;20028;-79
2024/03/05 12:29:37;;;;;;;1999.90;999.90;;;14.20;99.90;;;;;;5032674;28;20037;-79
2024/03/05 12:32:04;;;;;;;1999.90;999.90;;;14.30;99.90;;;;;;5050502;28;20040;-79